Woodford, Illinois
Current Conditions -  °F | °C
As of 11:35 AM on Tuesday 21 Oct 2014 (Local Time) from KC75 Reporting Station
Clear Clear  
Wind Chill: 54°   Ceiling: Unl
Heat Index: 54°   Visibility: 10mi
Dew Point: 38°   Wind: 7mph
Humidity: 56%   Direction: 20°NNE
Pressure: 30.17"   Gusts: NA
Location:  40.8848°N, 89.0396°W
Report Text: KC75 211635Z AUTO 02006KT 10SM CLR 12/04 A3017 RMK AO2 T01220036
Loading
Personal Weather Stations






























Interactive Weather Map
Tropical Storm Tracking
New forecast layout! Learn more

10-Day Weather Forecast

Advertisements
Track Severe Weather on mobile